sensor_id;sensor_type;location;lat;lon;timestamp;P1;durP1;ratioP1;P2;durP2;ratioP2
64075;SDS011;50327;51.328;12.324;2022-10-26T00:01:40;26.08;;;10.52;;
64075;SDS011;50327;51.328;12.324;2022-10-26T00:04:06;25.83;;;9.63;;
64075;SDS011;50327;51.328;12.324;2022-10-26T00:06:31;26.63;;;9.57;;
64075;SDS011;50327;51.328;12.324;2022-10-26T00:08:56;33.40;;;8.90;;
64075;SDS011;50327;51.328;12.324;2022-10-26T00:11:22;19.30;;;9.18;;
64075;SDS011;50327;51.328;12.324;2022-10-26T00:13:47;28.80;;;9.10;;
64075;SDS011;50327;51.328;12.324;2022-10-26T00:16:14;29.25;;;9.00;;
64075;SDS011;50327;51.328;12.324;2022-10-26T00:18:40;18.35;;;9.52;;
64075;SDS011;50327;51.328;12.324;2022-10-26T00:21:06;25.48;;;9.00;;
64075;SDS011;50327;51.328;12.324;2022-10-26T00:23:31;20.13;;;9.32;;
64075;SDS011;50327;51.328;12.324;2022-10-26T00:25:57;22.27;;;10.73;;
64075;SDS011;50327;51.328;12.324;2022-10-26T00:28:22;24.83;;;9.95;;
64075;SDS011;50327;51.328;12.324;2022-10-26T00:30:48;23.75;;;8.75;;
64075;SDS011;50327;51.328;12.324;2022-10-26T00:33:13;22.73;;;8.93;;
64075;SDS011;50327;51.328;12.324;2022-10-26T00:35:39;22.05;;;9.48;;
64075;SDS011;50327;51.328;12.324;2022-10-26T00:38:04;40.85;;;10.18;;
64075;SDS011;50327;51.328;12.324;2022-10-26T00:40:29;19.98;;;9.15;;
64075;SDS011;50327;51.328;12.324;2022-10-26T00:42:55;23.20;;;10.05;;
64075;SDS011;50327;51.328;12.324;2022-10-26T00:45:25;23.05;;;8.75;;
64075;SDS011;50327;51.328;12.324;2022-10-26T00:47:52;27.63;;;8.60;;
64075;SDS011;50327;51.328;12.324;2022-10-26T00:50:25;25.13;;;9.20;;
64075;SDS011;50327;51.328;12.324;2022-10-26T00:52:51;27.00;;;9.55;;
64075;SDS011;50327;51.328;12.324;2022-10-26T00:55:17;22.17;;;9.85;;
64075;SDS011;50327;51.328;12.324;2022-10-26T00:57:46;22.90;;;8.60;;
64075;SDS011;50327;51.328;12.324;2022-10-26T01:00:11;30.05;;;10.80;;
64075;SDS011;50327;51.328;12.324;2022-10-26T01:02:37;18.67;;;9.32;;
64075;SDS011;50327;51.328;12.324;2022-10-26T01:05:02;27.25;;;9.43;;
64075;SDS011;50327;51.328;12.324;2022-10-26T01:07:28;32.42;;;9.18;;
64075;SDS011;50327;51.328;12.324;2022-10-26T01:09:54;23.60;;;8.80;;
64075;SDS011;50327;51.328;12.324;2022-10-26T01:12:19;27.20;;;11.30;;
64075;SDS011;50327;51.328;12.324;2022-10-26T01:14:45;19.63;;;9.15;;
64075;SDS011;50327;51.328;12.324;2022-10-26T01:27:17;25.73;;;11.13;;
64075;SDS011;50327;51.328;12.324;2022-10-26T01:35:03;24.48;;;10.43;;
64075;SDS011;50327;51.328;12.324;2022-10-26T01:37:31;29.77;;;10.73;;
64075;SDS011;50327;51.328;12.324;2022-10-26T01:40:05;26.50;;;10.52;;
64075;SDS011;50327;51.328;12.324;2022-10-26T01:42:33;29.52;;;11.25;;
64075;SDS011;50327;51.328;12.324;2022-10-26T01:45:00;31.85;;;9.93;;
64075;SDS011;50327;51.328;12.324;2022-10-26T01:47:26;28.95;;;10.73;;
64075;SDS011;50327;51.328;12.324;2022-10-26T01:49:53;26.13;;;9.98;;
64075;SDS011;50327;51.328;12.324;2022-10-26T01:52:19;47.75;;;11.93;;
64075;SDS011;50327;51.328;12.324;2022-10-26T01:54:45;23.65;;;9.05;;
64075;SDS011;50327;51.328;12.324;2022-10-26T01:57:11;30.33;;;9.93;;
64075;SDS011;50327;51.328;12.324;2022-10-26T02:07:46;19.15;;;9.32;;
64075;SDS011;50327;51.328;12.324;2022-10-26T02:10:33;30.27;;;10.32;;
64075;SDS011;50327;51.328;12.324;2022-10-26T02:17:59;26.42;;;9.85;;
64075;SDS011;50327;51.328;12.324;2022-10-26T02:20:49;22.90;;;10.38;;
64075;SDS011;50327;51.328;12.324;2022-10-26T02:23:13;28.67;;;9.65;;
64075;SDS011;50327;51.328;12.324;2022-10-26T02:25:40;31.15;;;9.43;;
64075;SDS011;50327;51.328;12.324;2022-10-26T02:28:09;23.40;;;9.80;;
64075;SDS011;50327;51.328;12.324;2022-10-26T02:30:35;46.83;;;11.27;;
64075;SDS011;50327;51.328;12.324;2022-10-26T02:33:01;31.63;;;9.48;;
64075;SDS011;50327;51.328;12.324;2022-10-26T02:35:28;34.63;;;9.65;;
64075;SDS011;50327;51.328;12.324;2022-10-26T02:37:55;31.77;;;10.23;;
64075;SDS011;50327;51.328;12.324;2022-10-26T02:40:21;31.00;;;10.68;;
64075;SDS011;50327;51.328;12.324;2022-10-26T02:42:48;31.98;;;11.05;;
64075;SDS011;50327;51.328;12.324;2022-10-26T02:45:18;31.40;;;10.95;;
64075;SDS011;50327;51.328;12.324;2022-10-26T02:47:44;26.77;;;10.55;;
64075;SDS011;50327;51.328;12.324;2022-10-26T02:50:10;38.95;;;11.07;;
64075;SDS011;50327;51.328;12.324;2022-10-26T02:52:46;32.03;;;12.07;;
64075;SDS011;50327;51.328;12.324;2022-10-26T02:55:16;23.70;;;10.68;;
64075;SDS011;50327;51.328;12.324;2022-10-26T02:57:43;27.77;;;11.00;;
64075;SDS011;50327;51.328;12.324;2022-10-26T03:00:12;36.15;;;11.93;;
64075;SDS011;50327;51.328;12.324;2022-10-26T03:02:38;32.03;;;10.65;;
64075;SDS011;50327;51.328;12.324;2022-10-26T03:05:08;40.15;;;12.18;;
64075;SDS011;50327;51.328;12.324;2022-10-26T03:07:34;41.33;;;14.30;;
64075;SDS011;50327;51.328;12.324;2022-10-26T03:09:59;27.35;;;11.40;;
64075;SDS011;50327;51.328;12.324;2022-10-26T03:12:24;24.88;;;11.70;;
64075;SDS011;50327;51.328;12.324;2022-10-26T03:14:50;28.60;;;11.60;;
64075;SDS011;50327;51.328;12.324;2022-10-26T03:17:15;39.22;;;13.93;;
64075;SDS011;50327;51.328;12.324;2022-10-26T03:19:40;41.95;;;12.10;;
64075;SDS011;50327;51.328;12.324;2022-10-26T03:22:05;31.15;;;11.15;;
64075;SDS011;50327;51.328;12.324;2022-10-26T03:24:30;34.13;;;11.38;;
64075;SDS011;50327;51.328;12.324;2022-10-26T03:26:55;37.28;;;11.73;;
64075;SDS011;50327;51.328;12.324;2022-10-26T03:29:21;34.88;;;11.70;;
64075;SDS011;50327;51.328;12.324;2022-10-26T03:31:46;33.38;;;11.38;;
64075;SDS011;50327;51.328;12.324;2022-10-26T03:34:11;37.90;;;12.57;;
64075;SDS011;50327;51.328;12.324;2022-10-26T03:36:37;43.33;;;12.20;;
64075;SDS011;50327;51.328;12.324;2022-10-26T03:39:03;40.97;;;12.55;;
64075;SDS011;50327;51.328;12.324;2022-10-26T03:41:28;24.48;;;11.82;;
64075;SDS011;50327;51.328;12.324;2022-10-26T03:43:53;38.15;;;12.43;;
64075;SDS011;50327;51.328;12.324;2022-10-26T03:46:18;25.55;;;12.23;;
64075;SDS011;50327;51.328;12.324;2022-10-26T03:48:43;40.90;;;12.30;;
64075;SDS011;50327;51.328;12.324;2022-10-26T03:51:09;39.35;;;13.02;;
64075;SDS011;50327;51.328;12.324;2022-10-26T03:53:34;27.30;;;11.60;;
64075;SDS011;50327;51.328;12.324;2022-10-26T03:55:59;32.20;;;11.65;;
64075;SDS011;50327;51.328;12.324;2022-10-26T03:58:24;26.80;;;11.02;;
64075;SDS011;50327;51.328;12.324;2022-10-26T04:00:50;32.40;;;11.18;;
64075;SDS011;50327;51.328;12.324;2022-10-26T04:03:15;38.25;;;11.95;;
64075;SDS011;50327;51.328;12.324;2022-10-26T04:05:40;23.85;;;10.48;;
64075;SDS011;50327;51.328;12.324;2022-10-26T04:08:05;44.42;;;14.05;;
64075;SDS011;50327;51.328;12.324;2022-10-26T04:10:31;32.83;;;12.45;;
64075;SDS011;50327;51.328;12.324;2022-10-26T04:12:56;35.17;;;13.38;;
64075;SDS011;50327;51.328;12.324;2022-10-26T04:15:23;32.22;;;12.20;;
64075;SDS011;50327;51.328;12.324;2022-10-26T04:17:53;28.08;;;11.27;;
64075;SDS011;50327;51.328;12.324;2022-10-26T04:20:19;40.90;;;11.38;;
64075;SDS011;50327;51.328;12.324;2022-10-26T04:22:44;37.95;;;13.35;;
64075;SDS011;50327;51.328;12.324;2022-10-26T04:25:09;23.73;;;11.27;;
64075;SDS011;50327;51.328;12.324;2022-10-26T04:27:36;33.13;;;10.30;;
64075;SDS011;50327;51.328;12.324;2022-10-26T04:30:01;26.00;;;10.82;;
64075;SDS011;50327;51.328;12.324;2022-10-26T04:32:26;29.23;;;10.60;;
64075;SDS011;50327;51.328;12.324;2022-10-26T04:34:51;32.80;;;12.00;;
64075;SDS011;50327;51.328;12.324;2022-10-26T04:37:18;31.30;;;11.52;;
64075;SDS011;50327;51.328;12.324;2022-10-26T04:39:43;33.97;;;11.27;;
64075;SDS011;50327;51.328;12.324;2022-10-26T04:42:08;36.92;;;12.93;;
64075;SDS011;50327;51.328;12.324;2022-10-26T04:44:34;30.00;;;11.32;;
64075;SDS011;50327;51.328;12.324;2022-10-26T04:46:59;34.45;;;12.55;;
64075;SDS011;50327;51.328;12.324;2022-10-26T04:49:24;28.83;;;12.75;;
64075;SDS011;50327;51.328;12.324;2022-10-26T04:51:49;31.57;;;11.47;;
64075;SDS011;50327;51.328;12.324;2022-10-26T04:54:14;37.78;;;12.00;;
64075;SDS011;50327;51.328;12.324;2022-10-26T04:56:40;32.20;;;10.60;;
64075;SDS011;50327;51.328;12.324;2022-10-26T04:59:05;32.05;;;10.93;;
64075;SDS011;50327;51.328;12.324;2022-10-26T05:01:30;34.72;;;11.63;;
64075;SDS011;50327;51.328;12.324;2022-10-26T05:03:55;24.05;;;10.10;;
64075;SDS011;50327;51.328;12.324;2022-10-26T05:06:21;27.00;;;11.13;;
64075;SDS011;50327;51.328;12.324;2022-10-26T05:08:46;39.63;;;10.13;;
64075;SDS011;50327;51.328;12.324;2022-10-26T05:11:11;31.48;;;11.43;;
64075;SDS011;50327;51.328;12.324;2022-10-26T05:13:36;26.27;;;10.15;;
64075;SDS011;50327;51.328;12.324;2022-10-26T05:16:02;27.20;;;10.32;;
64075;SDS011;50327;51.328;12.324;2022-10-26T05:18:27;23.05;;;9.98;;
64075;SDS011;50327;51.328;12.324;2022-10-26T05:20:52;30.35;;;11.10;;
64075;SDS011;50327;51.328;12.324;2022-10-26T05:23:17;29.67;;;9.82;;
64075;SDS011;50327;51.328;12.324;2022-10-26T05:25:43;23.90;;;9.45;;
64075;SDS011;50327;51.328;12.324;2022-10-26T05:28:09;26.25;;;10.00;;
64075;SDS011;50327;51.328;12.324;2022-10-26T05:30:37;24.25;;;10.00;;
64075;SDS011;50327;51.328;12.324;2022-10-26T05:33:02;31.55;;;10.82;;
64075;SDS011;50327;51.328;12.324;2022-10-26T05:35:28;24.23;;;10.25;;
64075;SDS011;50327;51.328;12.324;2022-10-26T05:37:53;21.73;;;10.25;;
64075;SDS011;50327;51.328;12.324;2022-10-26T05:40:19;37.92;;;10.80;;
64075;SDS011;50327;51.328;12.324;2022-10-26T05:42:44;30.40;;;9.13;;
64075;SDS011;50327;51.328;12.324;2022-10-26T05:45:10;34.05;;;12.82;;
64075;SDS011;50327;51.328;12.324;2022-10-26T05:47:39;52.85;;;12.82;;
64075;SDS011;50327;51.328;12.324;2022-10-26T05:50:05;32.78;;;11.10;;
64075;SDS011;50327;51.328;12.324;2022-10-26T05:52:36;32.58;;;9.60;;
64075;SDS011;50327;51.328;12.324;2022-10-26T05:55:01;34.05;;;9.88;;
64075;SDS011;50327;51.328;12.324;2022-10-26T05:57:27;23.90;;;9.48;;
64075;SDS011;50327;51.328;12.324;2022-10-26T05:59:52;31.75;;;10.25;;
64075;SDS011;50327;51.328;12.324;2022-10-26T06:02:22;30.52;;;8.90;;
64075;SDS011;50327;51.328;12.324;2022-10-26T06:04:50;26.60;;;9.70;;
64075;SDS011;50327;51.328;12.324;2022-10-26T06:07:17;22.35;;;9.23;;
64075;SDS011;50327;51.328;12.324;2022-10-26T06:09:44;47.42;;;12.63;;
64075;SDS011;50327;51.328;12.324;2022-10-26T06:12:10;34.88;;;9.95;;
64075;SDS011;50327;51.328;12.324;2022-10-26T06:14:36;34.53;;;12.55;;
64075;SDS011;50327;51.328;12.324;2022-10-26T06:24:50;27.03;;;10.07;;
64075;SDS011;50327;51.328;12.324;2022-10-26T06:29:57;30.40;;;11.07;;
64075;SDS011;50327;51.328;12.324;2022-10-26T06:32:23;39.63;;;9.75;;
64075;SDS011;50327;51.328;12.324;2022-10-26T06:34:49;26.17;;;9.27;;
64075;SDS011;50327;51.328;12.324;2022-10-26T06:37:16;31.65;;;10.68;;
64075;SDS011;50327;51.328;12.324;2022-10-26T06:39:45;24.85;;;9.32;;
64075;SDS011;50327;51.328;12.324;2022-10-26T06:42:11;23.92;;;7.88;;
64075;SDS011;50327;51.328;12.324;2022-10-26T06:44:37;25.05;;;8.82;;
64075;SDS011;50327;51.328;12.324;2022-10-26T06:47:06;28.73;;;8.60;;
64075;SDS011;50327;51.328;12.324;2022-10-26T06:49:34;22.05;;;8.30;;
64075;SDS011;50327;51.328;12.324;2022-10-26T06:52:02;32.53;;;9.18;;
64075;SDS011;50327;51.328;12.324;2022-10-26T06:56:53;40.72;;;9.25;;
64075;SDS011;50327;51.328;12.324;2022-10-26T06:59:42;41.72;;;11.38;;
64075;SDS011;50327;51.328;12.324;2022-10-26T07:02:04;42.85;;;7.78;;
64075;SDS011;50327;51.328;12.324;2022-10-26T07:04:29;36.75;;;8.27;;
64075;SDS011;50327;51.328;12.324;2022-10-26T07:06:54;34.13;;;9.68;;
64075;SDS011;50327;51.328;12.324;2022-10-26T07:09:21;28.13;;;7.80;;
64075;SDS011;50327;51.328;12.324;2022-10-26T07:11:46;28.13;;;7.40;;
64075;SDS011;50327;51.328;12.324;2022-10-26T07:14:11;19.63;;;6.73;;
64075;SDS011;50327;51.328;12.324;2022-10-26T07:16:36;46.30;;;9.03;;
64075;SDS011;50327;51.328;12.324;2022-10-26T07:19:01;22.65;;;6.47;;
64075;SDS011;50327;51.328;12.324;2022-10-26T07:21:27;20.95;;;7.22;;
64075;SDS011;50327;51.328;12.324;2022-10-26T07:23:52;19.70;;;6.10;;
64075;SDS011;50327;51.328;12.324;2022-10-26T07:26:19;29.60;;;6.90;;
64075;SDS011;50327;51.328;12.324;2022-10-26T07:28:47;16.73;;;6.47;;
64075;SDS011;50327;51.328;12.324;2022-10-26T07:31:12;23.92;;;7.43;;
64075;SDS011;50327;51.328;12.324;2022-10-26T07:33:37;26.00;;;8.32;;
64075;SDS011;50327;51.328;12.324;2022-10-26T07:36:02;36.78;;;8.27;;
64075;SDS011;50327;51.328;12.324;2022-10-26T07:38:28;23.33;;;6.57;;
64075;SDS011;50327;51.328;12.324;2022-10-26T07:40:53;39.25;;;6.95;;
64075;SDS011;50327;51.328;12.324;2022-10-26T07:43:19;32.25;;;8.35;;
64075;SDS011;50327;51.328;12.324;2022-10-26T07:45:47;22.95;;;7.10;;
64075;SDS011;50327;51.328;12.324;2022-10-26T07:48:13;38.55;;;7.65;;
64075;SDS011;50327;51.328;12.324;2022-10-26T07:50:38;24.65;;;7.28;;
64075;SDS011;50327;51.328;12.324;2022-10-26T07:53:03;20.77;;;7.00;;
64075;SDS011;50327;51.328;12.324;2022-10-26T07:55:28;23.30;;;6.15;;
64075;SDS011;50327;51.328;12.324;2022-10-26T07:57:54;17.17;;;6.90;;
64075;SDS011;50327;51.328;12.324;2022-10-26T08:00:19;26.08;;;7.35;;
64075;SDS011;50327;51.328;12.324;2022-10-26T08:02:44;20.30;;;7.35;;
64075;SDS011;50327;51.328;12.324;2022-10-26T08:05:09;29.57;;;6.87;;
64075;SDS011;50327;51.328;12.324;2022-10-26T08:07:39;15.18;;;6.03;;
64075;SDS011;50327;51.328;12.324;2022-10-26T08:10:04;25.10;;;6.05;;
64075;SDS011;50327;51.328;12.324;2022-10-26T08:12:29;29.40;;;7.13;;
64075;SDS011;50327;51.328;12.324;2022-10-26T08:14:54;18.00;;;7.38;;
64075;SDS011;50327;51.328;12.324;2022-10-26T08:17:20;18.98;;;6.20;;
64075;SDS011;50327;51.328;12.324;2022-10-26T08:19:46;28.30;;;6.57;;
64075;SDS011;50327;51.328;12.324;2022-10-26T08:22:11;18.73;;;6.32;;
64075;SDS011;50327;51.328;12.324;2022-10-26T08:24:37;17.02;;;6.82;;
64075;SDS011;50327;51.328;12.324;2022-10-26T08:27:02;14.00;;;6.53;;
64075;SDS011;50327;51.328;12.324;2022-10-26T08:29:27;22.45;;;6.88;;
64075;SDS011;50327;51.328;12.324;2022-10-26T08:31:52;28.00;;;8.53;;
64075;SDS011;50327;51.328;12.324;2022-10-26T08:34:18;18.05;;;6.47;;
64075;SDS011;50327;51.328;12.324;2022-10-26T08:36:43;21.38;;;7.43;;
64075;SDS011;50327;51.328;12.324;2022-10-26T08:39:08;29.65;;;6.95;;
64075;SDS011;50327;51.328;12.324;2022-10-26T08:41:34;30.25;;;7.03;;
64075;SDS011;50327;51.328;12.324;2022-10-26T08:44:05;22.77;;;7.03;;
64075;SDS011;50327;51.328;12.324;2022-10-26T08:46:35;19.77;;;6.65;;
64075;SDS011;50327;51.328;12.324;2022-10-26T08:49:03;23.17;;;6.78;;
64075;SDS011;50327;51.328;12.324;2022-10-26T08:51:35;33.50;;;6.45;;
64075;SDS011;50327;51.328;12.324;2022-10-26T08:56:39;30.20;;;5.93;;
64075;SDS011;50327;51.328;12.324;2022-10-26T08:59:16;17.30;;;6.05;;
64075;SDS011;50327;51.328;12.324;2022-10-26T09:01:46;17.85;;;6.93;;
64075;SDS011;50327;51.328;12.324;2022-10-26T09:04:12;13.65;;;5.47;;
64075;SDS011;50327;51.328;12.324;2022-10-26T09:09:22;20.65;;;6.50;;
64075;SDS011;50327;51.328;12.324;2022-10-26T09:11:51;19.15;;;5.35;;
64075;SDS011;50327;51.328;12.324;2022-10-26T09:22:37;22.92;;;5.82;;
64075;SDS011;50327;51.328;12.324;2022-10-26T09:25:28;13.38;;;5.20;;
64075;SDS011;50327;51.328;12.324;2022-10-26T09:27:55;23.10;;;6.32;;
64075;SDS011;50327;51.328;12.324;2022-10-26T09:30:21;19.98;;;6.78;;
64075;SDS011;50327;51.328;12.324;2022-10-26T09:32:48;16.45;;;5.40;;
64075;SDS011;50327;51.328;12.324;2022-10-26T09:37:42;25.97;;;5.77;;
64075;SDS011;50327;51.328;12.324;2022-10-26T09:42:40;27.40;;;6.43;;
64075;SDS011;50327;51.328;12.324;2022-10-26T09:47:37;21.43;;;5.70;;
64075;SDS011;50327;51.328;12.324;2022-10-26T09:52:33;15.10;;;5.32;;
64075;SDS011;50327;51.328;12.324;2022-10-26T09:54:58;27.80;;;6.78;;
64075;SDS011;50327;51.328;12.324;2022-10-26T09:57:24;13.68;;;5.20;;
64075;SDS011;50327;51.328;12.324;2022-10-26T09:59:49;18.60;;;5.28;;
64075;SDS011;50327;51.328;12.324;2022-10-26T10:02:36;20.00;;;5.70;;
64075;SDS011;50327;51.328;12.324;2022-10-26T10:05:01;25.13;;;5.47;;
64075;SDS011;50327;51.328;12.324;2022-10-26T10:07:27;20.60;;;6.60;;
64075;SDS011;50327;51.328;12.324;2022-10-26T10:12:36;17.08;;;4.80;;
64075;SDS011;50327;51.328;12.324;2022-10-26T10:15:01;18.65;;;4.70;;
64075;SDS011;50327;51.328;12.324;2022-10-26T10:17:26;16.33;;;5.10;;
64075;SDS011;50327;51.328;12.324;2022-10-26T10:19:52;20.58;;;4.22;;
64075;SDS011;50327;51.328;12.324;2022-10-26T10:22:18;26.52;;;5.40;;
64075;SDS011;50327;51.328;12.324;2022-10-26T10:29:40;23.93;;;5.10;;
64075;SDS011;50327;51.328;12.324;2022-10-26T10:34:31;15.25;;;5.35;;
64075;SDS011;50327;51.328;12.324;2022-10-26T10:36:57;22.80;;;5.07;;
64075;SDS011;50327;51.328;12.324;2022-10-26T10:39:33;24.90;;;4.80;;
64075;SDS011;50327;51.328;12.324;2022-10-26T10:42:00;18.58;;;5.25;;
64075;SDS011;50327;51.328;12.324;2022-10-26T10:44:26;22.48;;;5.50;;
64075;SDS011;50327;51.328;12.324;2022-10-26T10:47:00;23.23;;;6.45;;
64075;SDS011;50327;51.328;12.324;2022-10-26T10:49:26;21.70;;;5.30;;
64075;SDS011;50327;51.328;12.324;2022-10-26T10:51:52;14.40;;;5.40;;
64075;SDS011;50327;51.328;12.324;2022-10-26T10:56:52;33.92;;;5.68;;
64075;SDS011;50327;51.328;12.324;2022-10-26T10:59:22;16.27;;;5.15;;
64075;SDS011;50327;51.328;12.324;2022-10-26T11:06:40;19.08;;;4.13;;
64075;SDS011;50327;51.328;12.324;2022-10-26T11:09:14;15.23;;;4.22;;
64075;SDS011;50327;51.328;12.324;2022-10-26T11:11:47;14.55;;;3.92;;
64075;SDS011;50327;51.328;12.324;2022-10-26T11:14:19;15.80;;;4.90;;
64075;SDS011;50327;51.328;12.324;2022-10-26T11:19:31;28.08;;;4.00;;
64075;SDS011;50327;51.328;12.324;2022-10-26T11:21:58;24.45;;;4.45;;
64075;SDS011;50327;51.328;12.324;2022-10-26T11:26:59;16.70;;;3.92;;
64075;SDS011;50327;51.328;12.324;2022-10-26T11:32:20;16.90;;;4.45;;
64075;SDS011;50327;51.328;12.324;2022-10-26T11:34:50;17.92;;;4.38;;
64075;SDS011;50327;51.328;12.324;2022-10-26T11:37:23;21.52;;;5.40;;
64075;SDS011;50327;51.328;12.324;2022-10-26T11:42:45;18.55;;;4.00;;
64075;SDS011;50327;51.328;12.324;2022-10-26T11:45:16;32.13;;;6.40;;
64075;SDS011;50327;51.328;12.324;2022-10-26T11:50:33;21.95;;;4.35;;
64075;SDS011;50327;51.328;12.324;2022-10-26T11:53:11;23.52;;;4.93;;
64075;SDS011;50327;51.328;12.324;2022-10-26T11:55:38;24.70;;;3.38;;
64075;SDS011;50327;51.328;12.324;2022-10-26T11:58:04;12.55;;;3.25;;
64075;SDS011;50327;51.328;12.324;2022-10-26T12:00:29;19.00;;;3.37;;
64075;SDS011;50327;51.328;12.324;2022-10-26T12:03:02;14.57;;;3.42;;
64075;SDS011;50327;51.328;12.324;2022-10-26T12:07:57;18.45;;;4.65;;
64075;SDS011;50327;51.328;12.324;2022-10-26T12:12:50;25.63;;;3.70;;
64075;SDS011;50327;51.328;12.324;2022-10-26T12:15:30;13.38;;;3.35;;
64075;SDS011;50327;51.328;12.324;2022-10-26T12:18:08;11.40;;;2.90;;
64075;SDS011;50327;51.328;12.324;2022-10-26T12:23:08;12.13;;;3.20;;
64075;SDS011;50327;51.328;12.324;2022-10-26T12:25:34;12.48;;;2.80;;
64075;SDS011;50327;51.328;12.324;2022-10-26T12:27:59;16.45;;;3.20;;
64075;SDS011;50327;51.328;12.324;2022-10-26T12:30:26;9.52;;;3.33;;
64075;SDS011;50327;51.328;12.324;2022-10-26T12:33:01;15.70;;;3.10;;
64075;SDS011;50327;51.328;12.324;2022-10-26T12:37:57;8.48;;;3.70;;
64075;SDS011;50327;51.328;12.324;2022-10-26T12:42:54;21.75;;;3.85;;
64075;SDS011;50327;51.328;12.324;2022-10-26T12:45:20;16.88;;;4.25;;
64075;SDS011;50327;51.328;12.324;2022-10-26T12:52:40;18.02;;;3.72;;
64075;SDS011;50327;51.328;12.324;2022-10-26T13:00:12;15.48;;;4.40;;
64075;SDS011;50327;51.328;12.324;2022-10-26T13:02:44;9.98;;;3.60;;
64075;SDS011;50327;51.328;12.324;2022-10-26T13:07:38;12.75;;;3.33;;
64075;SDS011;50327;51.328;12.324;2022-10-26T13:12:36;15.77;;;3.33;;
64075;SDS011;50327;51.328;12.324;2022-10-26T13:15:04;11.30;;;3.15;;
64075;SDS011;50327;51.328;12.324;2022-10-26T13:17:30;14.07;;;3.38;;
64075;SDS011;50327;51.328;12.324;2022-10-26T13:20:00;17.48;;;4.55;;
64075;SDS011;50327;51.328;12.324;2022-10-26T13:22:26;7.32;;;2.95;;
64075;SDS011;50327;51.328;12.324;2022-10-26T13:24:53;13.35;;;3.40;;
64075;SDS011;50327;51.328;12.324;2022-10-26T13:27:23;13.13;;;3.17;;
64075;SDS011;50327;51.328;12.324;2022-10-26T13:32:29;14.75;;;3.90;;
64075;SDS011;50327;51.328;12.324;2022-10-26T13:34:57;11.80;;;3.25;;
64075;SDS011;50327;51.328;12.324;2022-10-26T13:37:25;18.38;;;3.55;;
64075;SDS011;50327;51.328;12.324;2022-10-26T13:39:51;9.77;;;3.72;;
64075;SDS011;50327;51.328;12.324;2022-10-26T13:42:31;13.85;;;3.28;;
64075;SDS011;50327;51.328;12.324;2022-10-26T13:47:34;19.55;;;3.60;;
64075;SDS011;50327;51.328;12.324;2022-10-26T13:50:07;12.18;;;3.50;;
64075;SDS011;50327;51.328;12.324;2022-10-26T13:52:35;11.82;;;3.42;;
64075;SDS011;50327;51.328;12.324;2022-10-26T13:55:06;15.25;;;3.05;;
64075;SDS011;50327;51.328;12.324;2022-10-26T13:57:41;10.60;;;3.42;;
64075;SDS011;50327;51.328;12.324;2022-10-26T14:00:16;13.02;;;3.35;;
64075;SDS011;50327;51.328;12.324;2022-10-26T14:02:43;13.43;;;3.78;;
64075;SDS011;50327;51.328;12.324;2022-10-26T14:05:09;13.80;;;4.68;;
64075;SDS011;50327;51.328;12.324;2022-10-26T14:07:39;11.30;;;3.17;;
64075;SDS011;50327;51.328;12.324;2022-10-26T14:10:05;10.65;;;3.20;;
64075;SDS011;50327;51.328;12.324;2022-10-26T14:12:30;15.30;;;6.63;;
64075;SDS011;50327;51.328;12.324;2022-10-26T14:15:00;15.18;;;4.90;;
64075;SDS011;50327;51.328;12.324;2022-10-26T14:17:26;12.90;;;3.95;;
64075;SDS011;50327;51.328;12.324;2022-10-26T14:19:51;20.02;;;3.60;;
64075;SDS011;50327;51.328;12.324;2022-10-26T14:22:18;13.00;;;4.80;;
64075;SDS011;50327;51.328;12.324;2022-10-26T14:24:49;9.52;;;3.58;;
64075;SDS011;50327;51.328;12.324;2022-10-26T14:27:19;15.25;;;4.20;;
64075;SDS011;50327;51.328;12.324;2022-10-26T14:29:44;11.13;;;3.42;;
64075;SDS011;50327;51.328;12.324;2022-10-26T14:32:24;8.98;;;4.05;;
64075;SDS011;50327;51.328;12.324;2022-10-26T14:34:50;12.52;;;4.40;;
64075;SDS011;50327;51.328;12.324;2022-10-26T14:37:20;15.32;;;3.78;;
64075;SDS011;50327;51.328;12.324;2022-10-26T14:39:48;18.05;;;3.50;;
64075;SDS011;50327;51.328;12.324;2022-10-26T14:42:30;14.57;;;3.70;;
64075;SDS011;50327;51.328;12.324;2022-10-26T14:44:56;12.00;;;3.47;;
64075;SDS011;50327;51.328;12.324;2022-10-26T14:47:22;10.88;;;3.80;;
64075;SDS011;50327;51.328;12.324;2022-10-26T14:49:48;9.85;;;3.53;;
64075;SDS011;50327;51.328;12.324;2022-10-26T14:52:15;12.43;;;4.10;;
64075;SDS011;50327;51.328;12.324;2022-10-26T14:54:43;15.77;;;3.33;;
64075;SDS011;50327;51.328;12.324;2022-10-26T14:57:29;18.30;;;3.70;;
64075;SDS011;50327;51.328;12.324;2022-10-26T15:00:03;8.68;;;3.70;;
64075;SDS011;50327;51.328;12.324;2022-10-26T15:02:28;12.77;;;3.92;;
64075;SDS011;50327;51.328;12.324;2022-10-26T15:07:22;21.58;;;4.38;;
64075;SDS011;50327;51.328;12.324;2022-10-26T15:12:20;13.70;;;3.35;;
64075;SDS011;50327;51.328;12.324;2022-10-26T15:14:46;13.27;;;3.72;;
64075;SDS011;50327;51.328;12.324;2022-10-26T15:17:19;13.45;;;3.80;;
64075;SDS011;50327;51.328;12.324;2022-10-26T15:19:45;16.33;;;4.18;;
64075;SDS011;50327;51.328;12.324;2022-10-26T15:22:18;17.40;;;5.00;;
64075;SDS011;50327;51.328;12.324;2022-10-26T15:24:48;12.65;;;4.07;;
64075;SDS011;50327;51.328;12.324;2022-10-26T15:27:14;11.85;;;4.22;;
64075;SDS011;50327;51.328;12.324;2022-10-26T15:32:27;13.93;;;4.97;;
64075;SDS011;50327;51.328;12.324;2022-10-26T15:37:35;21.70;;;5.93;;
64075;SDS011;50327;51.328;12.324;2022-10-26T15:40:00;13.05;;;5.40;;
64075;SDS011;50327;51.328;12.324;2022-10-26T15:42:25;16.60;;;6.45;;
64075;SDS011;50327;51.328;12.324;2022-10-26T15:44:51;23.83;;;5.20;;
64075;SDS011;50327;51.328;12.324;2022-10-26T15:47:17;21.83;;;5.10;;
64075;SDS011;50327;51.328;12.324;2022-10-26T15:49:43;18.88;;;5.80;;
64075;SDS011;50327;51.328;12.324;2022-10-26T15:52:08;20.27;;;6.30;;
64075;SDS011;50327;51.328;12.324;2022-10-26T15:54:33;22.98;;;7.40;;
64075;SDS011;50327;51.328;12.324;2022-10-26T15:56:58;25.52;;;7.93;;
64075;SDS011;50327;51.328;12.324;2022-10-26T15:59:25;23.80;;;7.60;;
64075;SDS011;50327;51.328;12.324;2022-10-26T16:01:51;25.27;;;8.05;;
64075;SDS011;50327;51.328;12.324;2022-10-26T16:04:16;27.10;;;8.27;;
64075;SDS011;50327;51.328;12.324;2022-10-26T16:06:42;23.60;;;8.65;;
64075;SDS011;50327;51.328;12.324;2022-10-26T16:09:09;23.50;;;7.85;;
64075;SDS011;50327;51.328;12.324;2022-10-26T16:11:36;16.07;;;7.70;;
64075;SDS011;50327;51.328;12.324;2022-10-26T16:14:02;23.80;;;7.70;;
64075;SDS011;50327;51.328;12.324;2022-10-26T16:16:27;16.42;;;7.15;;
64075;SDS011;50327;51.328;12.324;2022-10-26T16:18:53;22.67;;;6.75;;
64075;SDS011;50327;51.328;12.324;2022-10-26T16:21:19;17.17;;;6.30;;
64075;SDS011;50327;51.328;12.324;2022-10-26T16:23:45;17.75;;;6.05;;
64075;SDS011;50327;51.328;12.324;2022-10-26T16:26:10;19.83;;;6.70;;
64075;SDS011;50327;51.328;12.324;2022-10-26T16:28:36;18.17;;;5.93;;
64075;SDS011;50327;51.328;12.324;2022-10-26T16:31:02;12.82;;;5.90;;
64075;SDS011;50327;51.328;12.324;2022-10-26T16:33:27;23.67;;;6.32;;
64075;SDS011;50327;51.328;12.324;2022-10-26T16:35:56;25.00;;;8.95;;
64075;SDS011;50327;51.328;12.324;2022-10-26T16:38:21;29.38;;;9.75;;